Hlavní strana
METAR-TAF:

METAR-TAF

Letiště :

Alton / St. Louis, Illinois, Spojené státy americké

zeměpisná šířka: 38-54N, zeměpisná délka: 090-03W, výška: 166 m

Aktuální stav počasí

Zpráva byla vytvořena před 21 minutami, v 09:55 UTC
Jihovýchodní vítr 16 kt s nárazy do 21 kt
Teplota 16°C
Vlhkost vzduchu 100%
Tlak 1000 hPa
Viditelnost: 8.0 km
Oblačno až skoro zataženo ve výšce 1400 ft
Oblačno až skoro zataženo ve výšce 3600 ft
Zataženo ve výšce 7000 ft
bouřka v blíkosti, déšť

METAR: KALN 210955Z AUTO 13016G21KT 5SM VCTSRA BKN014 BKN036 OVC070 16/16 A2953 RMK AO2 LTG DSNT ALQS P0016 T01570157

Čas: 05:16 (10:16 UTC)


TAF: chybějící

Stav a předpovědi počasí z více než 4 000 letišť (zprávy METAR a TAF).

Červené a žluté tečky na mapě představují dostupné meteorologické stanice.

Když kurzor umístíte na tečku, zobrazí se název stanice.

Pak kliknutím zobrazíte stav a předpověď počasí.

Chcete-li změnit mapu, kliknutím na zelené tlačítko se znaménkem +mapu přiblížíte, kliknutím na zelené tlačítko se znaménkem – mapu oddálíte a kliknutím na zelené šipky přejdete na sousední mapy.


METAR-TAF: